Time;durP1;ratioP1;P1;durP2;ratioP2;P2;SDS_P1;SDS_P2;PMS_P1;PMS_P2;Temp;Humidity;BMP_temperature;BMP_pressure;BME280_temperature;BME280_humidity;BME280_pressure;Samples;Min_cycle;Max_cycle;Signal;HPM_P1;HPM_P2
2022/06/24 00:00:14;;;;;;;10.48;2.70;;;;;;;22.59;46.96;100371.41;4999486;28;20030;-82
2022/06/24 00:02:49;;;;;;;10.02;2.22;;;;;;;22.59;47.01;100374.13;4983225;28;20042;-81
2022/06/24 00:05:15;;;;;;;7.22;2.10;;;;;;;22.57;46.96;100373.47;4998151;28;20022;-82
2022/06/24 00:07:47;;;;;;;6.30;2.05;;;;;;;22.55;47.17;100372.84;4999178;28;20030;-82
2022/06/24 00:10:23;;;;;;;4.00;1.83;;;;;;;22.55;47.08;100381.09;4998217;28;20027;-82
2022/06/24 00:12:50;;;;;;;5.05;2.08;;;;;;;22.58;47.17;100388.03;4999411;28;20023;-83
2022/06/24 00:15:25;;;;;;;7.97;2.00;;;;;;;22.54;47.41;100384.88;4999462;28;20014;-84
2022/06/24 00:17:52;;;;;;;9.40;2.28;;;;;;;22.51;47.39;100384.44;4982069;28;20030;-83
2022/06/24 00:20:19;;;;;;;4.00;2.00;;;;;;;22.52;47.32;100395.19;4981769;28;20519;-83
2022/06/24 00:22:47;;;;;;;5.05;2.10;;;;;;;22.49;47.52;100387.41;4998047;28;20092;-83
2022/06/24 00:25:15;;;;;;;9.25;2.08;;;;;;;22.49;47.42;100390.13;4998023;28;20026;-83
2022/06/24 00:27:43;;;;;;;6.28;1.95;;;;;;;22.47;47.55;100383.19;4998119;28;20030;-83
2022/06/24 00:30:16;;;;;;;3.22;2.20;;;;;;;22.48;47.69;100388.44;4999455;28;20022;-84
2022/06/24 00:32:44;;;;;;;8.88;1.95;;;;;;;22.49;47.50;100390.13;5000036;28;20468;-82
2022/06/24 00:35:16;;;;;;;9.35;2.35;;;;;;;22.42;47.37;100378.31;5000149;28;20053;-82
2022/06/24 00:37:43;;;;;;;10.23;2.47;;;;;;;22.44;47.72;100387.19;4998984;28;20030;-83
2022/06/24 00:40:16;;;;;;;9.52;2.50;;;;;;;22.40;47.86;100394.13;4981989;28;20060;-83
2022/06/24 00:42:42;;;;;;;;;;;;;;;22.41;47.68;100384.00;4998296;28;20050;-82
2022/06/24 00:45:26;;;;;;;5.72;2.22;;;;;;;22.40;47.79;100388.63;4999987;28;19968;-82
2022/06/24 00:47:53;;;;;;;13.75;2.88;;;;;;;22.31;47.81;100376.19;4998259;28;20133;-83
2022/06/24 00:50:32;;;;;;;6.18;2.38;;;;;;;22.31;47.97;100380.81;4998299;28;20057;-82
2022/06/24 00:52:59;;;;;;;16.52;2.28;;;;;;;22.34;48.05;100385.88;4999233;28;20026;-83
2022/06/24 00:55:32;;;;;;;12.48;2.67;;;;;;;22.31;48.07;100376.19;4999387;28;20018;-83
2022/06/24 00:57:58;;;;;;;9.13;2.33;;;;;;;22.32;48.08;100377.88;4998415;28;20033;-82
2022/06/24 01:00:28;;;;;;;5.55;1.80;;;;;;;22.36;48.04;100381.88;4999153;28;20057;-83
2022/06/24 01:03:00;;;;;;;3.28;2.25;;;;;;;22.37;48.00;100382.72;4994551;28;20132;-82
2022/06/24 01:05:30;;;;;;;17.70;3.70;;;;;;;22.38;48.14;100388.00;4996538;28;20023;-83
2022/06/24 01:07:57;;;;;;;8.73;2.60;;;;;;;22.39;48.08;100384.19;4995203;28;20034;-82
2022/06/24 01:10:24;;;;;;;5.50;2.15;;;;;;;22.34;48.28;100375.78;4995560;28;20141;-82
2022/06/24 01:12:49;;;;;;;5.55;2.65;;;;;;;22.35;48.24;100374.72;4995199;28;20058;-82
2022/06/24 01:15:17;;;;;;;7.93;2.38;;;;;;;22.34;48.18;100375.78;4995937;28;20488;-82
2022/06/24 01:17:43;;;;;;;24.50;3.20;;;;;;;22.32;48.33;100372.41;4994874;28;20041;-82
2022/06/24 01:20:11;;;;;;;6.50;2.15;;;;;;;22.33;48.46;100373.22;4994693;28;20022;-82
2022/06/24 01:22:38;;;;;;;5.90;2.75;;;;;;;22.31;48.62;100367.97;4994812;28;20534;-83
2022/06/24 01:25:13;;;;;;;7.60;2.55;;;;;;;22.32;48.72;100366.06;4994100;28;20034;-83
2022/06/24 01:27:40;;;;;;;4.10;2.50;;;;;;;22.21;48.74;100370.25;4995697;28;20492;-82
2022/06/24 01:30:09;;;;;;;9.50;2.88;;;;;;;22.16;49.04;100373.63;4996673;28;20109;-82
2022/06/24 01:32:36;;;;;;;10.00;2.78;;;;;;;22.21;49.45;100373.84;4993259;28;20077;-83
2022/06/24 01:35:06;;;;;;;7.80;2.83;;;;;;;22.09;49.62;100374.63;4995355;28;20034;-82
2022/06/24 01:37:34;;;;;;;15.82;3.33;;;;;;;21.98;50.03;100383.44;4994151;28;20031;-83
2022/06/24 01:39:59;;;;;;;8.68;3.03;;;;;;;21.92;50.40;100384.25;4994208;28;20022;-83
2022/06/24 01:42:25;;;;;;;6.13;2.40;;;;;;;21.85;50.80;100383.34;4993481;28;20142;-83
2022/06/24 01:44:50;;;;;;;9.70;3.20;;;;;;;21.88;51.40;100380.19;4993442;28;20037;-83
2022/06/24 01:47:18;;;;;;;9.50;3.97;;;;;;;21.88;51.82;100385.69;4994720;28;20046;-83
2022/06/24 01:49:46;;;;;;;7.47;3.42;;;;;;;21.85;52.19;100386.09;4995074;28;20034;-83
2022/06/24 01:52:14;;;;;;;32.45;3.70;;;;;;;21.89;51.97;100376.47;4994893;28;20026;-83
2022/06/24 01:54:41;;;;;;;8.55;3.55;;;;;;;21.91;51.92;100391.63;4994034;28;20034;-83
2022/06/24 01:57:08;;;;;;;8.75;3.80;;;;;;;21.91;52.02;100380.69;4977507;28;20070;-83
2022/06/24 01:59:33;;;;;;;17.00;3.90;;;;;;;21.85;52.29;100377.88;4993981;28;20117;-82
2022/06/24 02:01:59;;;;;;;14.32;3.75;;;;;;;21.87;52.35;100378.50;4994392;28;20575;-83
2022/06/24 02:04:24;;;;;;;14.02;3.78;;;;;;;21.81;52.54;100387.53;4993149;28;20105;-82
2022/06/24 02:06:51;;;;;;;12.05;3.20;;;;;;;21.81;52.35;100391.13;4994488;28;20030;-83
2022/06/24 02:09:16;;;;;;;16.20;4.43;;;;;;;21.77;52.49;100383.53;4993083;28;20099;-82
2022/06/24 02:14:28;;;;;;;11.85;3.75;;;;;;;21.70;52.71;100384.34;4994499;28;20080;-83
2022/06/24 02:16:54;;;;;;;12.90;3.67;;;;;;;21.76;52.73;100387.31;4994318;28;20052;-85
2022/06/24 02:19:21;;;;;;;30.83;4.40;;;;;;;21.77;52.95;100389.84;4977325;28;20112;-84
2022/06/24 02:21:48;;;;;;;7.00;3.22;;;;;;;21.74;52.72;100382.06;4995345;28;20087;-83
2022/06/24 02:24:15;;;;;;;8.75;3.42;;;;;;;21.73;53.03;100390.44;4993560;28;20038;-84
2022/06/24 02:26:45;;;;;;;9.93;4.00;;;;;;;21.81;53.35;100384.78;4994762;28;20032;-84
2022/06/24 02:29:14;;;;;;;11.82;5.07;;;;;;;21.81;53.33;100385.66;4993475;28;20120;-82
2022/06/24 02:31:40;;;;;;;12.52;4.07;;;;;;;21.87;53.18;100389.47;4994238;28;20468;-84
2022/06/24 02:34:07;;;;;;;14.73;4.25;;;;;;;21.88;53.05;100374.72;4995746;28;20465;-85
2022/06/24 02:36:33;;;;;;;10.75;4.28;;;;;;;21.88;53.10;100380.19;4995555;28;20053;-80
2022/06/24 02:38:58;;;;;;;8.75;3.72;;;;;;;21.92;52.79;100381.53;4993507;28;20061;-77
2022/06/24 02:41:24;;;;;;;9.52;3.95;;;;;;;21.88;52.89;100375.63;5002477;28;20045;-77
2022/06/24 02:43:49;;;;;;;15.45;3.40;;;;;;;21.89;52.62;100377.31;5002494;28;20121;-78
2022/06/24 02:46:18;;;;;;;14.82;3.45;;;;;;;21.94;52.00;100376.69;4983511;28;20492;-78
2022/06/24 02:48:44;;;;;;;10.38;3.38;;;;;;;22.01;51.46;100375.66;5004476;28;20026;-77
2022/06/24 02:51:14;;;;;;;13.13;3.10;;;;;;;22.07;51.44;100382.22;5002504;28;20124;-79
2022/06/24 02:53:40;;;;;;;10.98;4.47;;;;;;;22.11;51.82;100381.59;4984263;28;20496;-77
2022/06/24 02:56:12;;;;;;;18.75;4.30;;;;;;;22.08;52.81;100381.16;5002791;28;20092;-79
2022/06/24 02:58:39;;;;;;;14.93;5.13;;;;;;;22.06;52.93;100377.78;5001308;28;20065;-79
2022/06/24 03:01:05;;;;;;;15.43;4.47;;;;;;;22.12;52.97;100376.97;5003483;28;20420;-79
2022/06/24 03:03:31;;;;;;;17.77;5.43;;;;;;;22.07;53.22;100384.97;5011194;28;20105;-79
2022/06/24 03:05:57;;;;;;;17.85;5.05;;;;;;;22.10;53.11;100384.56;5012642;28;20407;-79
2022/06/24 03:08:25;;;;;;;15.38;4.75;;;;;;;22.16;52.78;100383.72;5012659;28;20025;-79
2022/06/24 03:10:51;;;;;;;9.60;3.97;;;;;;;22.19;52.41;100383.31;5006666;28;20037;-79
2022/06/24 03:13:17;;;;;;;9.50;4.65;;;;;;;22.17;52.75;100383.50;4993788;28;20045;-78
2022/06/24 03:15:45;;;;;;;12.18;4.40;;;;;;;22.18;52.74;100392.56;4992887;28;20026;-77
2022/06/24 03:18:11;;;;;;;11.05;4.38;;;;;;;22.18;53.02;100381.63;4992698;28;20554;-77
2022/06/24 03:20:37;;;;;;;19.48;5.45;;;;;;;22.09;53.26;100382.84;4993020;28;20460;-79
2022/06/24 03:23:03;;;;;;;21.88;4.93;;;;;;;22.11;53.41;100381.59;4992666;28;20042;-77
2022/06/24 03:25:28;;;;;;;11.93;4.13;;;;;;;22.22;52.71;100382.91;4992199;28;20022;-80
2022/06/24 03:27:54;;;;;;;6.57;3.63;;;;;;;22.18;52.54;100376.13;4992760;28;20044;-78
2022/06/24 03:30:20;;;;;;;16.40;4.05;;;;;;;22.20;52.27;100374.88;4992671;28;20030;-80
2022/06/24 03:32:45;;;;;;;27.33;4.15;;;;;;;22.21;52.08;100382.06;4992788;28;20026;-78
2022/06/24 03:35:11;;;;;;;9.77;3.80;;;;;;;22.27;52.04;100380.38;4992489;28;20514;-78
2022/06/24 03:37:36;;;;;;;13.90;3.83;;;;;;;22.30;51.96;100396.41;4975517;28;20026;-79
2022/06/24 03:40:03;;;;;;;13.60;3.70;;;;;;;22.30;51.97;100395.56;4992929;28;20073;-79
2022/06/24 03:42:29;;;;;;;12.48;3.03;;;;;;;22.38;52.11;100398.97;4992344;28;20058;-79
2022/06/24 03:44:54;;;;;;;7.28;3.00;;;;;;;22.48;51.85;100393.91;4992310;28;20023;-79
2022/06/24 03:47:20;;;;;;;13.88;3.63;;;;;;;22.62;51.80;100400.28;4992664;28;20030;-79
2022/06/24 03:49:46;;;;;;;11.65;4.53;;;;;;;22.64;51.72;100393.53;4992492;28;20499;-80
2022/06/24 03:52:11;;;;;;;21.10;4.32;;;;;;;22.70;51.68;100403.69;4992495;28;20026;-79
2022/06/24 03:54:37;;;;;;;11.50;3.75;;;;;;;22.70;51.86;100403.69;4992506;28;20027;-78
2022/06/24 03:57:03;;;;;;;21.13;4.90;;;;;;;22.72;51.32;100401.59;4993288;28;20480;-79
2022/06/24 03:59:29;;;;;;;16.55;4.10;;;;;;;22.81;51.30;100401.41;4975112;28;20081;-77
2022/06/24 04:01:54;;;;;;;11.82;3.92;;;;;;;22.90;51.35;100397.41;4992308;28;20089;-79
2022/06/24 04:04:20;;;;;;;19.27;8.80;;;;;;;23.00;50.99;100395.91;4974947;28;20109;-80
2022/06/24 04:06:45;;;;;;;6.72;3.50;;;;;;;23.10;50.34;100393.59;4992505;28;20084;-80
2022/06/24 04:09:11;;;;;;;16.27;5.55;;;;;;;23.09;50.18;100391.91;4992764;28;20560;-77
2022/06/24 04:11:37;;;;;;;7.53;2.85;;;;;;;23.12;50.17;100401.59;4991331;28;20029;-84
2022/06/24 04:14:02;;;;;;;15.82;3.38;;;;;;;23.11;50.37;100405.41;4999938;28;20053;-80
2022/06/24 04:16:28;;;;;;;5.80;2.45;;;;;;;23.05;50.63;100400.78;5003818;28;20018;-82
2022/06/24 04:18:54;;;;;;;10.85;3.50;;;;;;;23.05;50.94;100406.25;5000992;28;20022;-85
2022/06/24 04:21:20;;;;;;;13.82;3.45;;;;;;;23.06;50.90;100396.97;5007552;28;20048;-82
2022/06/24 04:23:49;;;;;;;14.98;3.50;;;;;;;23.08;50.66;100405.84;5011536;28;20029;-84
2022/06/24 04:26:15;;;;;;;7.95;4.88;;;;;;;23.04;51.15;100408.16;5011933;28;20492;-79
2022/06/24 04:28:41;;;;;;;20.42;3.67;;;;;;;23.01;51.02;100405.84;4998574;28;20061;-78
2022/06/24 04:31:08;;;;;;;3.78;2.08;;;;;;;22.97;51.13;100403.72;5011319;28;20056;-86
2022/06/24 04:33:34;;;;;;;6.50;3.05;;;;;;;23.09;51.47;100413.84;4991891;28;20444;-86
2022/06/24 04:35:59;;;;;;;10.05;3.85;;;;;;;23.10;51.31;100409.22;5011653;28;20164;-80
2022/06/24 04:38:25;;;;;;;7.28;2.97;;;;;;;23.13;51.32;100414.28;5016221;28;20022;-84
2022/06/24 04:40:51;;;;;;;13.43;4.18;;;;;;;23.13;51.20;100408.78;5016853;28;20071;-83
2022/06/24 04:43:16;;;;;;;8.30;3.15;;;;;;;23.20;51.10;100398.66;5016175;28;20057;-83
2022/06/24 04:45:45;;;;;;;16.38;3.30;;;;;;;23.24;50.77;100400.75;5015254;28;20018;-82
2022/06/24 04:48:10;;;;;;;8.18;3.30;;;;;;;23.20;50.95;100396.75;4997858;28;20030;-82
2022/06/24 04:50:36;;;;;;;8.95;3.10;;;;;;;23.29;51.22;100402.88;5015246;28;20033;-82
2022/06/24 04:53:02;;;;;;;5.82;3.25;;;;;;;23.33;50.81;100404.97;5015529;28;20022;-82
2022/06/24 04:55:27;;;;;;;14.32;3.28;;;;;;;23.30;50.79;100404.56;5015485;28;20018;-81
2022/06/24 04:57:53;;;;;;;5.60;3.10;;;;;;;23.31;50.78;100403.50;5015314;28;20061;-82
2022/06/24 05:00:18;;;;;;;6.80;2.95;;;;;;;23.28;51.01;100403.91;5014952;28;20057;-83
2022/06/24 05:02:44;;;;;;;8.00;3.17;;;;;;;23.23;51.10;100392.75;5014844;28;20053;-81
2022/06/24 05:05:11;;;;;;;14.55;3.25;;;;;;;23.20;51.40;100398.66;5014680;28;20477;-81
2022/06/24 05:07:37;;;;;;;13.88;2.85;;;;;;;23.20;51.23;100385.78;5014594;28;20499;-79
2022/06/24 05:10:03;;;;;;;11.38;2.88;;;;;;;23.33;51.06;100398.66;5014667;28;20056;-83
2022/06/24 05:12:28;;;;;;;8.18;3.22;;;;;;;23.30;50.91;100399.91;4995850;28;20061;-79
2022/06/24 05:14:54;;;;;;;17.25;3.85;;;;;;;23.31;51.71;100403.50;4995140;28;20057;-81
2022/06/24 05:17:19;;;;;;;8.18;3.75;;;;;;;23.31;51.33;100411.72;4995701;28;20069;-81
2022/06/24 05:19:45;;;;;;;7.28;3.53;;;;;;;23.34;51.05;100414.03;4994205;28;20030;-79
2022/06/24 05:22:11;;;;;;;11.63;3.50;;;;;;;23.29;51.25;100398.22;4995691;28;20026;-84
2022/06/24 05:24:37;;;;;;;12.73;3.85;;;;;;;23.32;51.00;100407.94;4995472;28;20491;-82
2022/06/24 05:27:03;;;;;;;11.43;2.90;;;;;;;23.49;50.97;100403.72;4995376;28;20057;-80
2022/06/24 05:29:28;;;;;;;17.17;3.13;;;;;;;23.52;51.06;100403.28;4993466;28;20026;-79
2022/06/24 05:31:54;;;;;;;8.18;2.97;;;;;;;23.56;50.85;100415.53;4993406;28;20030;-79
2022/06/24 05:34:19;;;;;;;14.30;3.22;;;;;;;23.55;50.73;100405.59;4994852;28;20022;-79
2022/06/24 05:36:45;;;;;;;5.97;2.83;;;;;;;23.62;50.61;100417.41;4994759;28;20499;-80
2022/06/24 05:39:11;;;;;;;14.32;3.20;;;;;;;23.58;50.61;100405.16;4994730;28;20097;-87
2022/06/24 05:41:41;;;;;;;5.57;2.95;;;;;;;23.58;50.98;100415.31;4994252;28;20029;-80
2022/06/24 05:44:07;;;;;;;6.68;2.70;;;;;;;23.70;50.87;100417.19;4993570;28;20034;-79
2022/06/24 05:46:33;;;;;;;7.82;2.97;;;;;;;23.65;50.52;100414.25;4995014;28;20031;-81
2022/06/24 05:49:00;;;;;;;3.92;2.78;;;;;;;23.60;51.36;100411.31;4995486;28;20028;-80
2022/06/24 05:51:26;;;;;;;15.73;3.30;;;;;;;23.63;51.43;100419.13;4994801;28;20184;-80
2022/06/24 05:56:36;;;;;;;14.10;3.13;;;;;;;23.72;51.20;100409.59;4993761;28;20169;-79
2022/06/24 05:59:02;;;;;;;36.15;6.25;;;;;;;23.74;51.88;100412.94;4994933;28;20065;-79
2022/06/24 06:01:27;;;;;;;12.68;2.85;;;;;;;23.84;51.12;100407.00;4994389;28;20035;-80
2022/06/24 06:03:54;;;;;;;12.65;2.83;;;;;;;23.90;50.62;100410.78;4994289;28;20034;-80
2022/06/24 06:06:19;;;;;;;7.65;3.25;;;;;;;23.95;50.19;100420.06;4994092;28;20030;-80
2022/06/24 06:08:45;;;;;;;7.53;2.92;;;;;;;23.93;50.14;100413.94;4993046;28;20129;-80
2022/06/24 06:11:12;;;;;;;9.15;3.42;;;;;;;23.94;49.81;100417.56;4994170;28;20030;-77
2022/06/24 06:13:39;;;;;;;10.45;3.25;;;;;;;23.98;50.05;100424.28;4993372;28;20393;-76
2022/06/24 06:16:06;;;;;;;13.00;3.33;;;;;;;23.90;49.63;100421.78;4993809;28;20041;-82
2022/06/24 06:18:31;;;;;;;5.97;3.00;;;;;;;23.90;49.84;100433.63;4996638;28;20041;-79
2022/06/24 06:21:05;;;;;;;8.95;2.78;;;;;;;23.86;49.75;100426.84;4994216;28;20034;-81
2022/06/24 06:23:31;;;;;;;10.75;3.20;;;;;;;23.82;50.27;100428.38;4994104;28;20061;-84
2022/06/24 06:26:00;;;;;;;19.15;4.60;;;;;;;23.91;50.27;100438.06;4994633;28;20072;-80
2022/06/24 06:28:26;;;;;;;14.98;3.80;;;;;;;23.96;49.68;100437.41;4993896;28;20033;-83
2022/06/24 06:30:52;;;;;;;10.18;3.55;;;;;;;23.94;49.95;100445.03;4993879;28;20403;-85
2022/06/24 06:33:18;;;;;;;17.25;8.38;;;;;;;23.83;50.04;100425.38;4994647;28;20038;-83
2022/06/24 06:35:45;;;;;;;18.88;9.60;;;;;;;23.91;50.03;100428.97;4992996;28;20032;-78
2022/06/24 06:38:14;;;;;;;6.25;3.92;;;;;;;23.90;50.20;100435.50;4992900;28;20030;-78
2022/06/24 06:40:40;;;;;;;15.07;3.63;;;;;;;24.10;50.24;100447.28;4993248;28;20022;-78
2022/06/24 06:43:09;;;;;;;18.05;3.30;;;;;;;24.18;49.99;100447.09;4992986;28;20109;-80
2022/06/24 06:45:36;;;;;;;16.20;3.33;;;;;;;24.20;49.60;100440.31;4992917;28;20113;-80
2022/06/24 06:48:02;;;;;;;5.68;3.28;;;;;;;24.38;49.86;100454.16;4993077;28;20109;-80
2022/06/24 06:50:27;;;;;;;9.88;3.63;;;;;;;24.44;49.76;100443.34;4993012;28;20109;-78
2022/06/24 06:52:53;;;;;;;7.18;3.13;;;;;;;24.49;49.39;100443.56;4992793;28;20038;-81
2022/06/24 06:55:18;;;;;;;6.93;3.15;;;;;;;24.47;49.71;100440.16;4994373;28;20053;-83
2022/06/24 06:57:44;;;;;;;7.82;2.85;;;;;;;24.52;49.17;100448.63;4993822;28;20033;-81
2022/06/24 07:00:10;;;;;;;14.90;6.25;;;;;;;24.47;49.40;100460.25;4993031;28;20038;-80
2022/06/24 07:02:36;;;;;;;9.80;3.38;;;;;;;24.48;49.37;100452.84;4993944;28;20030;-82
2022/06/24 07:05:02;;;;;;;9.27;3.80;;;;;;;24.43;49.69;100445.28;4992821;28;20053;-81
2022/06/24 07:07:28;;;;;;;14.57;3.08;;;;;;;24.54;49.77;100458.31;4993266;28;20030;-81
2022/06/24 07:09:54;;;;;;;10.13;3.10;;;;;;;24.47;49.36;100443.75;4993166;28;20381;-81
2022/06/24 07:12:20;;;;;;;6.85;3.50;;;;;;;24.50;49.75;100440.56;4993365;28;20030;-81
2022/06/24 07:14:46;;;;;;;11.13;3.42;;;;;;;24.60;50.00;100440.94;4991855;28;20041;-81
2022/06/24 07:17:11;;;;;;;8.55;3.30;;;;;;;24.59;49.91;100428.25;4990715;28;20396;-81
2022/06/24 07:19:37;;;;;;;12.55;3.65;;;;;;;24.74;49.96;100442.53;4992167;28;20026;-81
2022/06/24 07:22:03;;;;;;;15.50;3.78;;;;;;;24.72;49.60;100425.44;4992128;28;20113;-80
2022/06/24 07:24:29;;;;;;;9.55;3.33;;;;;;;24.80;49.87;100429.81;4991933;28;20030;-81
2022/06/24 07:26:54;;;;;;;8.40;3.17;;;;;;;24.88;50.00;100427.69;4991366;28;20037;-81
2022/06/24 07:29:20;;;;;;;20.17;3.50;;;;;;;25.04;49.87;100440.06;4992247;28;20030;-81
2022/06/24 07:31:47;;;;;;;10.93;3.72;;;;;;;25.10;49.75;100430.06;4992820;28;20439;-79
2022/06/24 07:34:16;;;;;;;14.48;3.75;;;;;;;25.15;49.45;100421.97;4992409;28;20030;-81
2022/06/24 07:36:41;;;;;;;38.35;5.70;;;;;;;25.28;49.20;100416.34;4991341;28;20030;-82
2022/06/24 07:39:07;;;;;;;25.02;5.65;;;;;;;25.52;48.45;100429.28;4992280;28;20030;-77
2022/06/24 07:41:33;;;;;;;21.83;4.40;;;;;;;25.54;48.30;100427.13;4991643;28;20036;-79
2022/06/24 07:44:00;;;;;;;35.60;5.75;;;;;;;25.72;47.92;100431.81;4991655;28;20058;-77
2022/06/24 07:46:27;;;;;;;33.70;4.53;;;;;;;25.78;47.92;100429.00;4993923;28;20045;-78
2022/06/24 07:48:53;;;;;;;6.10;3.20;;;;;;;25.84;47.81;100433.59;4997817;28;20498;-78
2022/06/24 07:51:19;;;;;;;17.92;3.38;;;;;;;25.96;47.57;100426.25;4996959;28;20125;-78
2022/06/24 07:53:47;;;;;;;16.65;3.88;;;;;;;26.05;47.41;100425.97;4995588;28;20031;-79
2022/06/24 07:58:58;;;;;;;18.77;3.45;;;;;;;26.03;46.78;100428.94;4996562;28;20550;-77
2022/06/24 08:01:23;;;;;;;19.65;3.95;;;;;;;26.02;47.23;100418.16;4992333;28;20034;-79
2022/06/24 08:03:49;;;;;;;22.05;4.47;;;;;;;26.09;47.18;100421.63;4991090;28;20029;-78
2022/06/24 08:06:15;;;;;;;17.00;3.85;;;;;;;26.13;46.73;100414.59;4994107;28;20105;-77
2022/06/24 08:08:40;;;;;;;13.57;3.13;;;;;;;26.17;46.53;100413.97;4993242;28;20033;-78
2022/06/24 08:11:06;;;;;;;14.75;3.75;;;;;;;26.17;45.97;100415.88;4993835;28;20026;-78
2022/06/24 08:13:32;;;;;;;8.20;3.78;;;;;;;26.16;46.11;100414.16;4995795;28;20029;-78
2022/06/24 08:15:58;;;;;;;13.52;3.15;;;;;;;26.24;46.45;100419.34;4995783;28;20018;-78
2022/06/24 08:18:23;;;;;;;6.95;3.05;;;;;;;26.32;46.81;100413.53;4995547;28;20081;-79
2022/06/24 08:20:49;;;;;;;54.25;6.28;;;;;;;26.48;46.58;100419.25;4995554;28;20022;-77
2022/06/24 08:23:15;;;;;;;9.40;3.55;;;;;;;26.56;46.52;100426.38;4995451;28;20026;-79
2022/06/24 08:25:40;;;;;;;46.05;6.82;;;;;;;26.65;46.52;100416.69;4995100;28;20142;-79
2022/06/24 08:28:06;;;;;;;8.82;3.50;;;;;;;26.65;46.09;100413.91;4995184;28;20539;-78
2022/06/24 08:30:31;;;;;;;107.63;12.68;;;;;;;26.75;45.77;100408.69;4995361;28;20022;-78
2022/06/24 08:32:57;;;;;;;8.75;3.42;;;;;;;26.80;45.19;100417.13;4995286;28;20049;-78
2022/06/24 08:35:22;;;;;;;41.55;5.75;;;;;;;26.78;45.53;100408.22;4995141;28;20014;-78
2022/06/24 08:37:48;;;;;;;7.60;2.70;;;;;;;26.75;45.54;100408.69;4993861;28;20022;-78
2022/06/24 08:40:15;;;;;;;7.32;2.50;;;;;;;26.72;45.79;100411.91;4995006;28;20026;-77
2022/06/24 08:42:44;;;;;;;7.35;4.13;;;;;;;26.70;45.91;100414.03;4994813;28;20051;-77
2022/06/24 08:45:12;;;;;;;14.82;3.47;;;;;;;26.75;46.30;100403.16;4995056;28;20030;-78
2022/06/24 08:47:39;;;;;;;25.85;3.97;;;;;;;26.78;46.55;100405.44;4994923;28;20053;-78
2022/06/24 08:50:08;;;;;;;15.10;3.00;;;;;;;26.90;46.49;100392.56;4994716;28;20054;-77
2022/06/24 08:52:34;;;;;;;7.15;3.03;;;;;;;27.07;46.04;100402.88;4994632;28;20105;-77
2022/06/24 08:55:00;;;;;;;10.80;2.42;;;;;;;27.14;44.87;100395.34;4994936;28;20118;-79
2022/06/24 08:57:25;;;;;;;11.55;3.38;;;;;;;27.16;44.95;100384.88;4993835;28;20026;-78
2022/06/24 08:59:51;;;;;;;61.08;6.53;;;;;;;27.04;44.38;100396.78;4995096;28;20026;-79
2022/06/24 09:02:18;;;;;;;10.73;3.20;;;;;;;27.01;44.74;100385.34;4994812;28;20472;-78
2022/06/24 09:04:44;;;;;;;59.10;8.05;;;;;;;26.99;44.52;100385.59;4994820;28;20053;-80
2022/06/24 09:07:22;;;;;;;17.80;3.28;;;;;;;27.07;44.81;100392.69;4994954;28;20141;-78
2022/06/24 09:10:10;;;;;;;10.05;3.03;;;;;;;27.09;44.82;100397.97;4995049;28;20022;-77
2022/06/24 09:12:40;;;;;;;10.70;2.85;;;;;;;27.13;44.19;100382.59;4993215;28;20551;-77
2022/06/24 09:15:08;;;;;;;11.68;2.70;;;;;;;27.14;44.20;100389.81;4994729;28;20037;-78
2022/06/24 09:17:35;;;;;;;60.50;8.98;;;;;;;27.17;44.52;100378.28;4994579;28;20463;-78
2022/06/24 09:20:22;;;;;;;24.73;4.88;;;;;;;27.25;44.66;100381.53;4994775;28;20050;-77
2022/06/24 09:22:50;;;;;;;39.25;7.45;;;;;;;27.30;44.27;100378.06;4994017;28;20028;-78
2022/06/24 09:25:16;;;;;;;7.53;2.38;;;;;;;27.31;43.42;100377.81;4994538;28;20022;-79
2022/06/24 09:27:46;;;;;;;11.25;2.72;;;;;;;27.32;42.84;100382.25;4994464;28;20109;-77
2022/06/24 09:30:16;;;;;;;50.22;6.50;;;;;;;27.38;43.58;100378.53;4994578;28;20026;-77
2022/06/24 09:32:54;;;;;;;8.27;3.15;;;;;;;27.55;43.07;100378.69;4994505;28;20543;-78
2022/06/24 09:35:22;;;;;;;11.40;2.90;;;;;;;27.62;43.33;100382.16;4992605;28;20052;-78
2022/06/24 09:37:49;;;;;;;6.70;2.53;;;;;;;27.65;43.57;100376.16;4994482;28;20058;-77
2022/06/24 09:40:17;;;;;;;14.07;3.47;;;;;;;27.74;41.25;100366.41;4994310;28;20519;-78
2022/06/24 09:42:50;;;;;;;6.93;2.60;;;;;;;27.74;41.57;100360.88;4993797;28;20069;-79
2022/06/24 09:45:16;;;;;;;11.25;2.15;;;;;;;27.76;42.19;100361.47;4994135;28;20030;-79
2022/06/24 09:47:48;;;;;;;14.00;2.88;;;;;;;27.83;42.30;100362.16;4994096;28;20041;-77
2022/06/24 09:50:14;;;;;;;22.63;5.38;;;;;;;27.89;42.57;100360.34;4993992;28;20057;-77
2022/06/24 09:52:40;;;;;;;7.45;2.47;;;;;;;27.95;42.23;100365.75;4994066;28;20062;-77
2022/06/24 09:55:06;;;;;;;9.77;2.70;;;;;;;28.05;42.51;100360.47;4994164;28;20106;-78
2022/06/24 09:57:33;;;;;;;11.60;3.10;;;;;;;28.18;42.43;100351.03;4994121;28;20057;-80
2022/06/24 10:02:44;;;;;;;28.80;4.15;;;;;;;28.41;41.80;100359.22;4993828;28;20038;-79
2022/06/24 10:05:12;;;;;;;32.17;3.97;;;;;;;28.45;40.24;100360.44;4994046;28;20105;-79
2022/06/24 10:07:44;;;;;;;9.10;2.50;;;;;;;28.49;39.96;100358.00;4992345;28;20041;-78
2022/06/24 10:10:10;;;;;;;8.18;2.85;;;;;;;28.50;39.71;100356.94;4994214;28;20030;-77
2022/06/24 10:12:41;;;;;;;5.80;2.50;;;;;;;28.35;39.11;100354.69;4993111;28;20030;-77
2022/06/24 10:15:08;;;;;;;10.02;2.55;;;;;;;28.37;38.97;100354.44;4992849;28;20090;-78
2022/06/24 10:17:35;;;;;;;5.90;1.98;;;;;;;28.37;38.97;100351.69;4993026;28;20634;-78
2022/06/24 10:20:02;;;;;;;4.32;1.98;;;;;;;28.33;39.01;100358.78;4992834;28;20036;-78
2022/06/24 10:22:38;;;;;;;10.77;2.88;;;;;;;28.25;39.10;100359.19;4992973;28;20496;-78
2022/06/24 10:25:05;;;;;;;11.50;5.28;;;;;;;28.30;38.84;100353.75;4992834;28;20026;-78
2022/06/24 10:27:56;;;;;;;10.05;2.63;;;;;;;28.27;38.60;100341.25;4992905;28;20503;-78
2022/06/24 10:30:48;;;;;;;10.95;2.70;;;;;;;28.26;39.17;100349.78;4982536;28;20049;-77
2022/06/24 10:33:14;;;;;;;;;;;;;;;28.26;39.86;100342.34;4982459;28;20101;-80
2022/06/24 10:36:03;;;;;;;4.17;2.30;;;;;;;28.35;39.51;100345.53;4993422;28;19917;-79
2022/06/24 10:38:39;;;;;;;12.55;2.95;;;;;;;28.47;38.95;100340.81;4993483;28;20386;-80
2022/06/24 10:41:06;;;;;;;13.30;2.55;;;;;;;28.57;39.44;100335.44;4994002;28;20092;-78
2022/06/24 10:43:40;;;;;;;10.30;2.30;;;;;;;28.70;38.30;100329.63;4993706;28;20054;-84
2022/06/24 10:46:12;;;;;;;26.95;3.67;;;;;;;28.76;38.14;100334.16;4993779;28;20023;-78
2022/06/24 10:48:43;;;;;;;5.13;2.28;;;;;;;28.74;38.32;100333.59;4992029;28;20037;-78
2022/06/24 10:51:22;;;;;;;15.45;3.72;;;;;;;28.72;38.44;100335.75;4992801;28;20488;-78
2022/06/24 10:54:06;;;;;;;5.18;2.40;;;;;;;28.67;38.43;100334.81;4993544;28;20038;-81
2022/06/24 10:56:45;;;;;;;12.90;2.83;;;;;;;28.79;38.07;100332.81;4991825;28;20092;-77
2022/06/24 10:59:12;;;;;;;21.27;2.97;;;;;;;28.80;37.93;100340.91;4992085;28;20030;-76
2022/06/24 11:01:43;;;;;;;20.80;3.53;;;;;;;28.93;37.36;100329.47;4992227;28;20046;-76
2022/06/24 11:04:17;;;;;;;13.88;2.65;;;;;;;28.93;36.94;100326.69;4993191;28;20369;-79
2022/06/24 11:07:09;;;;;;;21.10;3.05;;;;;;;28.84;37.57;100328.19;4995978;28;20022;-79
2022/06/24 11:09:35;;;;;;;22.53;3.00;;;;;;;28.77;37.29;100335.84;4993534;28;20022;-79
2022/06/24 11:12:05;;;;;;;16.58;2.25;;;;;;;28.91;37.09;100348.25;4992996;28;20763;-79
2022/06/24 11:14:31;;;;;;;15.00;2.53;;;;;;;29.05;37.28;100324.66;4992357;28;20026;-79
2022/06/24 11:16:56;;;;;;;17.70;2.83;;;;;;;29.18;36.67;100329.88;4992371;28;20108;-80
2022/06/24 11:19:22;;;;;;;17.80;3.17;;;;;;;29.20;36.44;100321.31;4992537;28;20109;-80
2022/06/24 11:21:50;;;;;;;10.40;3.03;;;;;;;29.23;36.59;100317.19;4992375;28;20026;-79
2022/06/24 11:24:20;;;;;;;24.55;3.88;;;;;;;29.38;36.42;100325.75;4992300;28;20449;-79
2022/06/24 11:27:06;;;;;;;10.65;3.33;;;;;;;29.44;36.59;100327.50;4992017;28;20036;-79
2022/06/24 11:29:52;;;;;;;14.63;3.22;;;;;;;29.38;36.51;100320.22;4991463;28;20037;-79
2022/06/24 11:32:18;;;;;;;12.65;2.53;;;;;;;29.37;36.69;100324.06;4991208;28;20031;-79
2022/06/24 11:34:45;;;;;;;61.95;7.82;;;;;;;29.36;36.50;100322.38;4991039;28;20495;-79